AirNav   Air Wisconsin Up To $57,000 Bonus
 
 747 users online  

5MO8 Double E Heliport
Norborne, Missouri, USA

GOING TO NORBORNE?


FAA INFORMATION EFFECTIVE 05 DECEMBER 2019

Location

FAA Identifier: 5MO8
Lat/Long: 39-16-10.0610N 093-39-15.7750W
39-16.167683N 093-39.262917W
39.2694614,-93.6543819
(estimated)
Elevation: 670 ft. / 204 m (estimated)
Variation: 04E (1985)
From city: 3 miles SE of NORBORNE, MO
Time zone: UTC -6 (UTC -5 during Daylight Saving Time)
Zip code: 64668

Heliport Operations

Heliport use: Private use. Permission required prior to landing
Activation date: 04/1977
Control tower: no
ARTCC: KANSAS CITY CENTER
FSS: COLUMBIA FLIGHT SERVICE STATION
Attendance: IREG
Wind indicator: no
Segmented circle: no

Nearby radio navigation aids

VOR radial/distance  VOR name  Freq  Var
BQSr152/24.0BRAYMER VOR/DME111.2003E
ANXr058/24.4NAPOLEON VORTAC114.0007E

Heliport Services

Runway Information

Helipad H1

Dimensions: 100 x 100 ft. / 30 x 30 m
Surface: turf
Latitude: 39-16.167667N
Longitude: 093-39.263000W
Elevation: 670.0 ft.
Traffic pattern: leftleft

Heliport Ownership and Management from official FAA records

Ownership: Privately-owned
Owner: J ESCHENBACH
15563 CD 334
NORBORNE, MO 64668
Phone 816-560-4147
Manager: J ESCHENBACH
15563 CD 334
NORBORNE, MO 64668
Phone 816-560-4147

Additional Remarks

OPS BY PRIOR PERMISSION ONLY.
FOR CD CTC KANSAS CITY ARTCC AT 913-254-8508.

Instrument Procedures

There are no published instrument procedures at 5MO8.

Some nearby airports with instrument procedures:

KHIG - Higginsville Industrial Municipal Airport (12 nm S)
KMHL - Marshall Memorial Municipal Airport (23 nm SE)
3EX - Excelsior Springs Memorial Airport (26 nm W)
KRCM - Skyhaven Airport (30 nm S)
3GV - East Kansas City Airport (30 nm SW)
 
Loc | Ops | Rwys | IFR | FBO | Links
Com | Nav | Svcs | Stats | Notes

Kansas City Aviation Department
 
Area around 5MO8 (Double E Heliport)
 
Road maps at: MapQuest Bing Google
 
Aerial photo
No photo
 
Sectional chart

 
Airport distance calculator
Flying to Double E Heliport? Find the distance to fly.

From to 5MO8

Sunrise and sunset
Times for 13-Dec-2019
 Local
(UTC-6)
 Zulu
(UTC)
Morning civil twilight06:5712:57
Sunrise07:2713:27
Sunset16:5122:51
Evening civil twilight17:2123:21

Current date and time
Zulu (UTC)  13-Dec-2019 12:34:33
Local (UTC-6)  13-Dec-2019 06:34:33
 
METAR
KMHL 
23nm SE 
131215Z AUTO 00000KT 10SM CLR 03/M04 A2994 RMK AO2 TSNO PWINO
KRCM 
30nm S 
131215Z AUTO RMK AO2 TSNO PWINO
KGPH 
31nm W 
131215Z AUTO 00000KT 10SM CLR M01/M02 A2992 RMK AO2
KCDJ 
33nm N 
131152Z AUTO 00000KT M03/M04 A2995 RMK AO1 SLP154 T10331039 10017 21033 57013
KSZL 
34nm S 
131156Z 19005KT 10SM OVC050 05/M03 A2988 RMK AO2A SLP124 T00451026 10070 20045 57015 $
KLXT 
38nm SW 
131153Z AUTO 18004KT 10SM CLR 04/M03 A2992 RMK AO2 SLP135 T00391028 10072 20028 58012
KEZZ 
40nm NW 
131215Z AUTO 08003KT 7SM BR CLR M04/M04 A2993 RMK AO2 T10361043
KDMO 
40nm SE 
131153Z AUTO 21006KT 10SM OVC055 06/M03 A2994 RMK AO2 SLP141 T00611033 10072 20061 56014
KMKC 
45nm W 
131154Z 00000KT 10SM FEW038 01/M02 A2992 RMK AO2 SLP134 T00111017 10050 20006 58009
TAF
KSZL 
34nm S 
131100Z 1311/1417 22009KT 9999 BKN050 BKN120 620502 QNH2980INS BECMG 1319/1320 22009KT 9999 BKN020 BKN050 620505 QNH2974INS BECMG 1404/1405 28009KT 6000 -RA BKN010 OVC050 620509 QNH2974INS BECMG 1409/1410 33012KT 2400 -SN OVC008 650153 QNH2978INS TX13/1321Z TN01/1411Z
NOTAMs
Click for the latest NOTAMs
NOTAMs are issued by the DoD/FAA and will open in a separate window not controlled by AirNav.

 

 
 

Would you like to see your business listed on this page?

 If your business provides an interesting product or service to pilots, flight crews, aircraft, or users of the Double E Heliport, you should consider listing it here.  To start the listing process, click on the button below
 
Add a business
 

Other Pages about Double E Heliport

Update a link
 
Copyright © AirNav, LLC. All rights reserved. Privacy Policy  Contact